sensor_id;sensor_type;location;lat;lon;timestamp;temperature;humidity
26326;DHT22;14032;52.510;7.342;2024-02-21T00:01:23;8.80;99.90
26326;DHT22;14032;52.510;7.342;2024-02-21T00:03:49;8.80;99.90
26326;DHT22;14032;52.510;7.342;2024-02-21T00:06:15;8.80;99.90
26326;DHT22;14032;52.510;7.342;2024-02-21T00:08:40;8.80;99.90
26326;DHT22;14032;52.510;7.342;2024-02-21T00:11:06;8.80;99.90
26326;DHT22;14032;52.510;7.342;2024-02-21T00:13:33;8.80;99.90
26326;DHT22;14032;52.510;7.342;2024-02-21T00:16:00;8.80;99.90
26326;DHT22;14032;52.510;7.342;2024-02-21T00:18:26;8.70;99.90
26326;DHT22;14032;52.510;7.342;2024-02-21T00:20:51;8.80;99.90
26326;DHT22;14032;52.510;7.342;2024-02-21T00:23:18;8.80;99.90
26326;DHT22;14032;52.510;7.342;2024-02-21T00:25:43;8.80;99.90
26326;DHT22;14032;52.510;7.342;2024-02-21T00:28:09;8.80;99.90
26326;DHT22;14032;52.510;7.342;2024-02-21T00:30:34;8.80;99.90
26326;DHT22;14032;52.510;7.342;2024-02-21T00:33:00;8.80;99.90
26326;DHT22;14032;52.510;7.342;2024-02-21T00:35:26;8.80;99.90
26326;DHT22;14032;52.510;7.342;2024-02-21T00:37:52;8.80;99.90
26326;DHT22;14032;52.510;7.342;2024-02-21T00:40:17;8.80;99.90
26326;DHT22;14032;52.510;7.342;2024-02-21T00:42:46;8.90;99.90
26326;DHT22;14032;52.510;7.342;2024-02-21T00:45:12;8.80;99.90
26326;DHT22;14032;52.510;7.342;2024-02-21T00:47:37;8.80;99.90
26326;DHT22;14032;52.510;7.342;2024-02-21T00:50:03;8.80;99.90
26326;DHT22;14032;52.510;7.342;2024-02-21T00:52:29;8.80;99.90
26326;DHT22;14032;52.510;7.342;2024-02-21T00:54:54;8.80;99.90
26326;DHT22;14032;52.510;7.342;2024-02-21T00:57:20;8.70;99.90
26326;DHT22;14032;52.510;7.342;2024-02-21T00:59:46;8.80;99.90
26326;DHT22;14032;52.510;7.342;2024-02-21T01:02:11;8.80;99.90
26326;DHT22;14032;52.510;7.342;2024-02-21T01:04:37;8.80;99.90
26326;DHT22;14032;52.510;7.342;2024-02-21T01:07:02;8.80;99.90
26326;DHT22;14032;52.510;7.342;2024-02-21T01:09:28;8.80;99.90
26326;DHT22;14032;52.510;7.342;2024-02-21T01:11:54;8.90;99.90
26326;DHT22;14032;52.510;7.342;2024-02-21T01:14:19;8.80;99.90
26326;DHT22;14032;52.510;7.342;2024-02-21T01:16:45;8.80;99.90
26326;DHT22;14032;52.510;7.342;2024-02-21T01:19:11;8.80;99.90
26326;DHT22;14032;52.510;7.342;2024-02-21T01:21:36;8.80;99.90
26326;DHT22;14032;52.510;7.342;2024-02-21T01:24:02;8.80;99.90
26326;DHT22;14032;52.510;7.342;2024-02-21T01:26:27;8.80;99.90
26326;DHT22;14032;52.510;7.342;2024-02-21T01:28:53;8.80;99.90
26326;DHT22;14032;52.510;7.342;2024-02-21T01:31:19;8.90;99.90
26326;DHT22;14032;52.510;7.342;2024-02-21T01:33:45;8.90;99.90
26326;DHT22;14032;52.510;7.342;2024-02-21T01:36:12;8.90;99.90
26326;DHT22;14032;52.510;7.342;2024-02-21T01:38:38;8.90;99.90
26326;DHT22;14032;52.510;7.342;2024-02-21T01:41:03;8.90;99.90
26326;DHT22;14032;52.510;7.342;2024-02-21T01:43:29;8.90;99.90
26326;DHT22;14032;52.510;7.342;2024-02-21T01:45:55;9.00;99.90
26326;DHT22;14032;52.510;7.342;2024-02-21T01:48:25;9.00;99.90
26326;DHT22;14032;52.510;7.342;2024-02-21T01:50:52;9.00;99.90
26326;DHT22;14032;52.510;7.342;2024-02-21T01:53:22;9.00;99.90
26326;DHT22;14032;52.510;7.342;2024-02-21T01:55:48;9.10;99.90
26326;DHT22;14032;52.510;7.342;2024-02-21T01:58:18;9.10;99.90
26326;DHT22;14032;52.510;7.342;2024-02-21T02:00:46;9.00;99.90
26326;DHT22;14032;52.510;7.342;2024-02-21T02:03:13;8.90;99.90
26326;DHT22;14032;52.510;7.342;2024-02-21T02:05:46;8.90;99.90
26326;DHT22;14032;52.510;7.342;2024-02-21T02:08:16;8.90;99.90
26326;DHT22;14032;52.510;7.342;2024-02-21T02:10:45;8.90;99.90
26326;DHT22;14032;52.510;7.342;2024-02-21T02:13:11;8.90;99.90
26326;DHT22;14032;52.510;7.342;2024-02-21T02:15:48;9.00;99.90
26326;DHT22;14032;52.510;7.342;2024-02-21T02:18:15;8.90;99.90
26326;DHT22;14032;52.510;7.342;2024-02-21T02:20:41;8.90;99.90
26326;DHT22;14032;52.510;7.342;2024-02-21T02:23:23;8.90;99.90
26326;DHT22;14032;52.510;7.342;2024-02-21T02:25:49;8.90;99.90
26326;DHT22;14032;52.510;7.342;2024-02-21T02:28:17;9.00;99.90
26326;DHT22;14032;52.510;7.342;2024-02-21T02:30:43;9.00;99.90
26326;DHT22;14032;52.510;7.342;2024-02-21T02:33:09;8.90;99.90
26326;DHT22;14032;52.510;7.342;2024-02-21T02:35:35;8.90;99.90
26326;DHT22;14032;52.510;7.342;2024-02-21T02:38:02;8.90;99.90
26326;DHT22;14032;52.510;7.342;2024-02-21T02:40:28;8.90;99.90
26326;DHT22;14032;52.510;7.342;2024-02-21T02:42:54;8.90;99.90
26326;DHT22;14032;52.510;7.342;2024-02-21T02:45:23;8.90;99.90
26326;DHT22;14032;52.510;7.342;2024-02-21T02:47:55;8.90;99.90
26326;DHT22;14032;52.510;7.342;2024-02-21T02:50:26;9.00;99.90
26326;DHT22;14032;52.510;7.342;2024-02-21T02:52:53;9.00;99.90
26326;DHT22;14032;52.510;7.342;2024-02-21T02:55:18;9.00;99.90
26326;DHT22;14032;52.510;7.342;2024-02-21T02:57:44;8.90;99.90
26326;DHT22;14032;52.510;7.342;2024-02-21T03:00:11;8.90;99.90
26326;DHT22;14032;52.510;7.342;2024-02-21T03:02:38;8.90;99.90
26326;DHT22;14032;52.510;7.342;2024-02-21T03:05:16;9.00;99.90
26326;DHT22;14032;52.510;7.342;2024-02-21T03:07:42;8.90;99.90
26326;DHT22;14032;52.510;7.342;2024-02-21T03:10:08;8.90;99.90
26326;DHT22;14032;52.510;7.342;2024-02-21T03:12:34;8.90;99.90
26326;DHT22;14032;52.510;7.342;2024-02-21T03:14:59;8.80;99.90
26326;DHT22;14032;52.510;7.342;2024-02-21T03:17:25;8.80;99.90
26326;DHT22;14032;52.510;7.342;2024-02-21T03:19:54;8.70;99.90
26326;DHT22;14032;52.510;7.342;2024-02-21T03:22:24;8.80;99.90
26326;DHT22;14032;52.510;7.342;2024-02-21T03:24:49;8.80;99.90
26326;DHT22;14032;52.510;7.342;2024-02-21T03:27:21;8.70;99.90
26326;DHT22;14032;52.510;7.342;2024-02-21T03:29:47;8.70;99.90
26326;DHT22;14032;52.510;7.342;2024-02-21T03:32:13;8.70;99.90
26326;DHT22;14032;52.510;7.342;2024-02-21T03:34:38;8.70;99.90
26326;DHT22;14032;52.510;7.342;2024-02-21T03:37:04;8.70;99.90
26326;DHT22;14032;52.510;7.342;2024-02-21T03:39:33;8.60;99.90
26326;DHT22;14032;52.510;7.342;2024-02-21T03:41:59;8.60;99.90
26326;DHT22;14032;52.510;7.342;2024-02-21T03:44:32;8.60;99.90
26326;DHT22;14032;52.510;7.342;2024-02-21T03:46:59;8.60;99.90
26326;DHT22;14032;52.510;7.342;2024-02-21T03:49:25;8.60;99.90
26326;DHT22;14032;52.510;7.342;2024-02-21T03:51:51;8.60;99.90
26326;DHT22;14032;52.510;7.342;2024-02-21T03:54:16;8.50;99.90
26326;DHT22;14032;52.510;7.342;2024-02-21T03:56:42;8.50;99.90
26326;DHT22;14032;52.510;7.342;2024-02-21T03:59:08;8.50;99.90
26326;DHT22;14032;52.510;7.342;2024-02-21T04:01:36;8.50;99.90
26326;DHT22;14032;52.510;7.342;2024-02-21T04:04:02;8.40;99.90
26326;DHT22;14032;52.510;7.342;2024-02-21T04:06:28;8.40;99.90
26326;DHT22;14032;52.510;7.342;2024-02-21T04:08:54;8.40;99.90
26326;DHT22;14032;52.510;7.342;2024-02-21T04:11:19;8.50;99.90
26326;DHT22;14032;52.510;7.342;2024-02-21T04:13:45;8.40;99.90
26326;DHT22;14032;52.510;7.342;2024-02-21T04:16:14;8.40;99.90
26326;DHT22;14032;52.510;7.342;2024-02-21T04:18:40;8.40;99.90
26326;DHT22;14032;52.510;7.342;2024-02-21T04:21:05;8.40;99.90
26326;DHT22;14032;52.510;7.342;2024-02-21T04:23:31;8.40;99.90
26326;DHT22;14032;52.510;7.342;2024-02-21T04:25:57;8.30;99.90
26326;DHT22;14032;52.510;7.342;2024-02-21T04:28:22;8.30;99.90
26326;DHT22;14032;52.510;7.342;2024-02-21T04:30:48;8.30;99.90
26326;DHT22;14032;52.510;7.342;2024-02-21T04:33:13;8.30;99.90
26326;DHT22;14032;52.510;7.342;2024-02-21T04:35:39;8.30;99.90
26326;DHT22;14032;52.510;7.342;2024-02-21T04:38:05;8.40;99.90
26326;DHT22;14032;52.510;7.342;2024-02-21T04:40:30;8.40;99.90
26326;DHT22;14032;52.510;7.342;2024-02-21T04:42:57;8.40;99.90
26326;DHT22;14032;52.510;7.342;2024-02-21T04:45:22;8.40;99.90
26326;DHT22;14032;52.510;7.342;2024-02-21T04:47:48;8.40;99.90
26326;DHT22;14032;52.510;7.342;2024-02-21T04:50:14;8.50;99.90
26326;DHT22;14032;52.510;7.342;2024-02-21T04:52:39;8.40;99.90
26326;DHT22;14032;52.510;7.342;2024-02-21T04:55:05;8.40;99.90
26326;DHT22;14032;52.510;7.342;2024-02-21T04:57:31;8.40;99.90
26326;DHT22;14032;52.510;7.342;2024-02-21T04:59:57;8.50;99.90
26326;DHT22;14032;52.510;7.342;2024-02-21T05:02:22;8.50;99.90
26326;DHT22;14032;52.510;7.342;2024-02-21T05:04:50;8.50;99.90
26326;DHT22;14032;52.510;7.342;2024-02-21T05:07:19;8.40;99.90
26326;DHT22;14032;52.510;7.342;2024-02-21T05:09:45;8.50;99.90
26326;DHT22;14032;52.510;7.342;2024-02-21T05:12:11;8.40;99.90
26326;DHT22;14032;52.510;7.342;2024-02-21T05:14:37;8.50;99.90
26326;DHT22;14032;52.510;7.342;2024-02-21T05:17:03;8.50;99.90
26326;DHT22;14032;52.510;7.342;2024-02-21T05:19:29;8.50;99.90
26326;DHT22;14032;52.510;7.342;2024-02-21T05:21:54;8.50;99.90
26326;DHT22;14032;52.510;7.342;2024-02-21T05:24:21;8.50;99.90
26326;DHT22;14032;52.510;7.342;2024-02-21T05:26:48;8.50;99.90
26326;DHT22;14032;52.510;7.342;2024-02-21T05:29:14;8.50;99.90
26326;DHT22;14032;52.510;7.342;2024-02-21T05:34:18;8.60;99.90
26326;DHT22;14032;52.510;7.342;2024-02-21T05:36:44;8.60;99.90
26326;DHT22;14032;52.510;7.342;2024-02-21T05:39:10;8.60;99.90
26326;DHT22;14032;52.510;7.342;2024-02-21T05:41:35;8.50;99.90
26326;DHT22;14032;52.510;7.342;2024-02-21T05:44:01;8.60;99.90
26326;DHT22;14032;52.510;7.342;2024-02-21T05:46:28;8.60;99.90
26326;DHT22;14032;52.510;7.342;2024-02-21T05:48:54;8.60;99.90
26326;DHT22;14032;52.510;7.342;2024-02-21T05:51:20;8.60;99.90
26326;DHT22;14032;52.510;7.342;2024-02-21T05:53:46;8.60;99.90
26326;DHT22;14032;52.510;7.342;2024-02-21T05:56:12;8.60;99.90
26326;DHT22;14032;52.510;7.342;2024-02-21T05:58:38;8.60;99.90
26326;DHT22;14032;52.510;7.342;2024-02-21T06:01:04;8.60;99.90
26326;DHT22;14032;52.510;7.342;2024-02-21T06:03:30;8.60;99.90
26326;DHT22;14032;52.510;7.342;2024-02-21T06:05:56;8.60;99.90
26326;DHT22;14032;52.510;7.342;2024-02-21T06:08:21;8.60;99.90
26326;DHT22;14032;52.510;7.342;2024-02-21T06:10:47;8.70;99.90
26326;DHT22;14032;52.510;7.342;2024-02-21T06:13:14;8.70;99.90
26326;DHT22;14032;52.510;7.342;2024-02-21T06:15:41;8.70;99.90
26326;DHT22;14032;52.510;7.342;2024-02-21T06:18:06;8.70;99.90
26326;DHT22;14032;52.510;7.342;2024-02-21T06:20:32;8.70;99.90
26326;DHT22;14032;52.510;7.342;2024-02-21T06:22:57;8.70;99.90
26326;DHT22;14032;52.510;7.342;2024-02-21T06:25:23;8.70;99.90
26326;DHT22;14032;52.510;7.342;2024-02-21T06:27:49;8.70;99.90
26326;DHT22;14032;52.510;7.342;2024-02-21T06:30:14;8.70;99.90
26326;DHT22;14032;52.510;7.342;2024-02-21T06:32:40;8.80;99.90
26326;DHT22;14032;52.510;7.342;2024-02-21T06:35:06;8.70;99.90
26326;DHT22;14032;52.510;7.342;2024-02-21T06:37:31;8.70;99.90
26326;DHT22;14032;52.510;7.342;2024-02-21T06:39:58;8.70;99.90
26326;DHT22;14032;52.510;7.342;2024-02-21T06:42:27;8.70;99.90
26326;DHT22;14032;52.510;7.342;2024-02-21T06:44:52;8.70;99.90
26326;DHT22;14032;52.510;7.342;2024-02-21T06:47:18;8.70;99.90
26326;DHT22;14032;52.510;7.342;2024-02-21T06:49:49;8.70;99.90
26326;DHT22;14032;52.510;7.342;2024-02-21T06:52:16;8.70;99.90
26326;DHT22;14032;52.510;7.342;2024-02-21T06:54:46;8.70;99.90
26326;DHT22;14032;52.510;7.342;2024-02-21T06:57:15;8.70;99.90
26326;DHT22;14032;52.510;7.342;2024-02-21T06:59:43;8.70;99.90
26326;DHT22;14032;52.510;7.342;2024-02-21T07:02:15;8.70;99.90
26326;DHT22;14032;52.510;7.342;2024-02-21T07:04:41;8.80;99.90
26326;DHT22;14032;52.510;7.342;2024-02-21T07:07:06;8.80;99.90
26326;DHT22;14032;52.510;7.342;2024-02-21T07:09:32;8.90;99.90
26326;DHT22;14032;52.510;7.342;2024-02-21T07:11:58;8.90;99.90
26326;DHT22;14032;52.510;7.342;2024-02-21T07:14:24;9.00;99.90
26326;DHT22;14032;52.510;7.342;2024-02-21T07:16:52;9.00;99.90
26326;DHT22;14032;52.510;7.342;2024-02-21T07:19:17;8.90;99.90
26326;DHT22;14032;52.510;7.342;2024-02-21T07:21:52;8.90;99.90
26326;DHT22;14032;52.510;7.342;2024-02-21T07:24:18;8.80;99.90
26326;DHT22;14032;52.510;7.342;2024-02-21T07:26:44;8.80;99.90
26326;DHT22;14032;52.510;7.342;2024-02-21T07:29:10;8.80;99.90
26326;DHT22;14032;52.510;7.342;2024-02-21T07:31:43;8.80;99.90
26326;DHT22;14032;52.510;7.342;2024-02-21T07:34:09;8.80;99.90
26326;DHT22;14032;52.510;7.342;2024-02-21T07:36:38;8.80;99.90
26326;DHT22;14032;52.510;7.342;2024-02-21T07:39:07;8.80;99.90
26326;DHT22;14032;52.510;7.342;2024-02-21T07:41:36;8.80;99.90
26326;DHT22;14032;52.510;7.342;2024-02-21T07:44:04;8.80;99.90
26326;DHT22;14032;52.510;7.342;2024-02-21T07:46:30;8.80;99.90
26326;DHT22;14032;52.510;7.342;2024-02-21T07:49:00;8.80;99.90
26326;DHT22;14032;52.510;7.342;2024-02-21T07:51:28;8.80;99.90
26326;DHT22;14032;52.510;7.342;2024-02-21T07:53:53;8.80;99.90
26326;DHT22;14032;52.510;7.342;2024-02-21T07:56:20;8.80;99.90
26326;DHT22;14032;52.510;7.342;2024-02-21T07:58:45;8.80;99.90
26326;DHT22;14032;52.510;7.342;2024-02-21T08:01:11;8.80;99.90
26326;DHT22;14032;52.510;7.342;2024-02-21T08:03:37;8.80;99.90
26326;DHT22;14032;52.510;7.342;2024-02-21T08:06:03;8.80;99.90
26326;DHT22;14032;52.510;7.342;2024-02-21T08:08:29;8.90;99.90
26326;DHT22;14032;52.510;7.342;2024-02-21T08:10:55;8.80;99.90
26326;DHT22;14032;52.510;7.342;2024-02-21T08:13:21;8.80;99.90
26326;DHT22;14032;52.510;7.342;2024-02-21T08:15:48;8.90;99.90
26326;DHT22;14032;52.510;7.342;2024-02-21T08:18:13;8.90;99.90
26326;DHT22;14032;52.510;7.342;2024-02-21T08:20:41;8.90;99.90
26326;DHT22;14032;52.510;7.342;2024-02-21T08:23:06;8.80;99.90
26326;DHT22;14032;52.510;7.342;2024-02-21T08:25:32;8.80;99.90
26326;DHT22;14032;52.510;7.342;2024-02-21T08:27:59;8.80;99.90
26326;DHT22;14032;52.510;7.342;2024-02-21T08:30:26;8.80;99.90
26326;DHT22;14032;52.510;7.342;2024-02-21T08:32:53;8.80;99.90
26326;DHT22;14032;52.510;7.342;2024-02-21T08:35:21;8.80;99.90
26326;DHT22;14032;52.510;7.342;2024-02-21T08:37:50;8.80;99.90
26326;DHT22;14032;52.510;7.342;2024-02-21T08:40:15;8.80;99.90
26326;DHT22;14032;52.510;7.342;2024-02-21T08:42:47;8.80;99.90
26326;DHT22;14032;52.510;7.342;2024-02-21T08:45:13;8.80;99.90
26326;DHT22;14032;52.510;7.342;2024-02-21T08:47:39;8.90;99.90
26326;DHT22;14032;52.510;7.342;2024-02-21T08:50:06;8.90;99.90
26326;DHT22;14032;52.510;7.342;2024-02-21T08:52:32;8.90;99.90
26326;DHT22;14032;52.510;7.342;2024-02-21T08:54:58;8.90;99.90
26326;DHT22;14032;52.510;7.342;2024-02-21T08:57:24;9.00;99.90
26326;DHT22;14032;52.510;7.342;2024-02-21T08:59:49;9.00;99.90
26326;DHT22;14032;52.510;7.342;2024-02-21T09:02:16;9.00;99.90
26326;DHT22;14032;52.510;7.342;2024-02-21T09:04:42;9.00;99.90
26326;DHT22;14032;52.510;7.342;2024-02-21T09:07:09;9.00;99.90
26326;DHT22;14032;52.510;7.342;2024-02-21T09:09:35;9.10;99.90
26326;DHT22;14032;52.510;7.342;2024-02-21T09:12:01;9.20;99.90
26326;DHT22;14032;52.510;7.342;2024-02-21T09:14:32;9.20;99.90
26326;DHT22;14032;52.510;7.342;2024-02-21T09:16:59;9.20;99.90
26326;DHT22;14032;52.510;7.342;2024-02-21T09:19:24;9.30;99.90
26326;DHT22;14032;52.510;7.342;2024-02-21T09:21:50;9.30;99.90
26326;DHT22;14032;52.510;7.342;2024-02-21T09:24:17;9.30;99.90
26326;DHT22;14032;52.510;7.342;2024-02-21T09:26:43;9.40;99.90
26326;DHT22;14032;52.510;7.342;2024-02-21T09:29:09;9.30;99.90
26326;DHT22;14032;52.510;7.342;2024-02-21T09:31:37;9.40;99.90
26326;DHT22;14032;52.510;7.342;2024-02-21T09:34:04;9.40;99.90
26326;DHT22;14032;52.510;7.342;2024-02-21T09:36:30;9.40;99.90
26326;DHT22;14032;52.510;7.342;2024-02-21T09:38:56;9.40;99.90
26326;DHT22;14032;52.510;7.342;2024-02-21T09:41:25;9.40;99.90
26326;DHT22;14032;52.510;7.342;2024-02-21T09:43:51;9.40;99.90
26326;DHT22;14032;52.510;7.342;2024-02-21T09:51:41;9.40;99.90
26326;DHT22;14032;52.510;7.342;2024-02-21T09:54:08;9.40;99.90
26326;DHT22;14032;52.510;7.342;2024-02-21T09:56:34;9.40;99.90
26326;DHT22;14032;52.510;7.342;2024-02-21T09:59:01;9.50;99.90
26326;DHT22;14032;52.510;7.342;2024-02-21T10:01:31;9.40;99.90
26326;DHT22;14032;52.510;7.342;2024-02-21T10:03:57;9.50;99.90
26326;DHT22;14032;52.510;7.342;2024-02-21T10:06:23;9.50;99.90
26326;DHT22;14032;52.510;7.342;2024-02-21T10:08:55;9.50;99.90
26326;DHT22;14032;52.510;7.342;2024-02-21T10:11:25;9.50;99.90
26326;DHT22;14032;52.510;7.342;2024-02-21T10:13:51;9.60;99.90
26326;DHT22;14032;52.510;7.342;2024-02-21T10:16:17;9.60;99.90
26326;DHT22;14032;52.510;7.342;2024-02-21T10:18:42;9.70;99.90
26326;DHT22;14032;52.510;7.342;2024-02-21T10:21:08;9.70;99.90
26326;DHT22;14032;52.510;7.342;2024-02-21T10:23:48;9.70;99.90
26326;DHT22;14032;52.510;7.342;2024-02-21T10:26:15;9.80;99.90
26326;DHT22;14032;52.510;7.342;2024-02-21T10:28:41;9.80;99.90
26326;DHT22;14032;52.510;7.342;2024-02-21T10:31:23;9.80;99.90
26326;DHT22;14032;52.510;7.342;2024-02-21T10:34:02;9.80;99.90
26326;DHT22;14032;52.510;7.342;2024-02-21T10:36:29;9.90;99.90
26326;DHT22;14032;52.510;7.342;2024-02-21T10:38:55;9.90;99.90
26326;DHT22;14032;52.510;7.342;2024-02-21T10:41:22;9.90;99.90
26326;DHT22;14032;52.510;7.342;2024-02-21T10:43:51;9.80;99.90
26326;DHT22;14032;52.510;7.342;2024-02-21T10:46:21;9.90;99.90
26326;DHT22;14032;52.510;7.342;2024-02-21T10:48:51;9.90;99.90
26326;DHT22;14032;52.510;7.342;2024-02-21T10:51:19;9.90;99.90
26326;DHT22;14032;52.510;7.342;2024-02-21T10:56:31;9.90;99.90
26326;DHT22;14032;52.510;7.342;2024-02-21T10:59:01;10.00;99.90
26326;DHT22;14032;52.510;7.342;2024-02-21T11:01:29;9.90;99.90
26326;DHT22;14032;52.510;7.342;2024-02-21T11:04:15;9.90;99.90
26326;DHT22;14032;52.510;7.342;2024-02-21T11:06:45;9.90;99.90
26326;DHT22;14032;52.510;7.342;2024-02-21T11:09:11;9.90;99.90
26326;DHT22;14032;52.510;7.342;2024-02-21T11:11:47;9.80;99.90
26326;DHT22;14032;52.510;7.342;2024-02-21T11:14:22;9.90;99.90
26326;DHT22;14032;52.510;7.342;2024-02-21T11:16:51;9.90;99.90
26326;DHT22;14032;52.510;7.342;2024-02-21T11:19:25;9.90;99.90
26326;DHT22;14032;52.510;7.342;2024-02-21T11:21:52;9.90;99.90
26326;DHT22;14032;52.510;7.342;2024-02-21T11:24:30;9.90;99.90
26326;DHT22;14032;52.510;7.342;2024-02-21T11:27:07;9.90;99.90
26326;DHT22;14032;52.510;7.342;2024-02-21T11:29:33;9.90;99.90
26326;DHT22;14032;52.510;7.342;2024-02-21T11:32:09;9.90;99.90
26326;DHT22;14032;52.510;7.342;2024-02-21T11:34:36;9.90;99.90
26326;DHT22;14032;52.510;7.342;2024-02-21T11:37:01;9.90;99.90
26326;DHT22;14032;52.510;7.342;2024-02-21T11:39:27;9.90;99.90
26326;DHT22;14032;52.510;7.342;2024-02-21T11:42:06;9.90;99.90
26326;DHT22;14032;52.510;7.342;2024-02-21T11:44:34;9.90;99.90
26326;DHT22;14032;52.510;7.342;2024-02-21T11:47:00;9.90;99.90
26326;DHT22;14032;52.510;7.342;2024-02-21T11:49:30;9.90;99.90
26326;DHT22;14032;52.510;7.342;2024-02-21T11:52:03;9.90;99.90
26326;DHT22;14032;52.510;7.342;2024-02-21T11:54:33;10.00;99.90
26326;DHT22;14032;52.510;7.342;2024-02-21T11:56:59;10.00;99.90
26326;DHT22;14032;52.510;7.342;2024-02-21T11:59:25;10.10;99.90
26326;DHT22;14032;52.510;7.342;2024-02-21T12:01:53;10.10;99.90
26326;DHT22;14032;52.510;7.342;2024-02-21T12:04:22;10.10;99.90
26326;DHT22;14032;52.510;7.342;2024-02-21T12:06:49;10.10;99.90
26326;DHT22;14032;52.510;7.342;2024-02-21T12:09:15;10.10;99.90
26326;DHT22;14032;52.510;7.342;2024-02-21T12:11:42;10.10;99.90
26326;DHT22;14032;52.510;7.342;2024-02-21T12:14:07;10.10;99.90
26326;DHT22;14032;52.510;7.342;2024-02-21T12:16:36;10.10;99.90
26326;DHT22;14032;52.510;7.342;2024-02-21T12:19:04;10.10;99.90
26326;DHT22;14032;52.510;7.342;2024-02-21T12:21:31;10.10;99.90
26326;DHT22;14032;52.510;7.342;2024-02-21T12:23:58;10.00;99.90
26326;DHT22;14032;52.510;7.342;2024-02-21T12:26:25;10.00;99.90
26326;DHT22;14032;52.510;7.342;2024-02-21T12:28:51;10.00;99.90
26326;DHT22;14032;52.510;7.342;2024-02-21T12:31:16;10.00;99.90
26326;DHT22;14032;52.510;7.342;2024-02-21T12:33:43;9.90;99.90
26326;DHT22;14032;52.510;7.342;2024-02-21T12:36:09;9.90;99.90
26326;DHT22;14032;52.510;7.342;2024-02-21T12:38:36;9.90;99.90
26326;DHT22;14032;52.510;7.342;2024-02-21T12:41:01;9.80;99.90
26326;DHT22;14032;52.510;7.342;2024-02-21T12:43:30;9.80;99.90
26326;DHT22;14032;52.510;7.342;2024-02-21T12:45:56;9.80;99.90
26326;DHT22;14032;52.510;7.342;2024-02-21T12:48:22;9.70;99.90
26326;DHT22;14032;52.510;7.342;2024-02-21T12:50:49;9.70;99.90
26326;DHT22;14032;52.510;7.342;2024-02-21T12:53:19;9.70;99.90
26326;DHT22;14032;52.510;7.342;2024-02-21T12:55:48;9.70;99.90
26326;DHT22;14032;52.510;7.342;2024-02-21T12:58:14;9.60;99.90
26326;DHT22;14032;52.510;7.342;2024-02-21T13:00:41;9.70;99.90
26326;DHT22;14032;52.510;7.342;2024-02-21T13:03:06;9.70;99.90
26326;DHT22;14032;52.510;7.342;2024-02-21T13:05:32;9.70;99.90
26326;DHT22;14032;52.510;7.342;2024-02-21T13:07:59;9.70;99.90
26326;DHT22;14032;52.510;7.342;2024-02-21T13:10:25;9.60;99.90
26326;DHT22;14032;52.510;7.342;2024-02-21T13:12:50;9.60;99.90
26326;DHT22;14032;52.510;7.342;2024-02-21T13:15:16;9.60;99.90
26326;DHT22;14032;52.510;7.342;2024-02-21T13:17:44;9.60;99.90
26326;DHT22;14032;52.510;7.342;2024-02-21T13:20:10;9.60;99.90
26326;DHT22;14032;52.510;7.342;2024-02-21T13:22:36;9.60;99.90
26326;DHT22;14032;52.510;7.342;2024-02-21T13:25:03;9.50;99.90
26326;DHT22;14032;52.510;7.342;2024-02-21T13:27:30;9.50;99.90
26326;DHT22;14032;52.510;7.342;2024-02-21T13:29:56;9.50;99.90
26326;DHT22;14032;52.510;7.342;2024-02-21T13:32:21;9.50;99.90
26326;DHT22;14032;52.510;7.342;2024-02-21T13:34:47;9.50;99.90
26326;DHT22;14032;52.510;7.342;2024-02-21T13:37:13;9.50;99.90
26326;DHT22;14032;52.510;7.342;2024-02-21T13:39:40;9.60;99.90
26326;DHT22;14032;52.510;7.342;2024-02-21T13:42:06;9.60;99.90
26326;DHT22;14032;52.510;7.342;2024-02-21T13:44:32;9.70;99.90
26326;DHT22;14032;52.510;7.342;2024-02-21T13:46:59;9.70;99.90
26326;DHT22;14032;52.510;7.342;2024-02-21T13:49:24;9.70;99.90
26326;DHT22;14032;52.510;7.342;2024-02-21T13:51:51;9.70;99.90
26326;DHT22;14032;52.510;7.342;2024-02-21T13:54:16;9.70;99.90
26326;DHT22;14032;52.510;7.342;2024-02-21T13:56:45;9.80;99.90
26326;DHT22;14032;52.510;7.342;2024-02-21T13:59:12;9.80;99.90
26326;DHT22;14032;52.510;7.342;2024-02-21T14:01:39;9.90;99.90
26326;DHT22;14032;52.510;7.342;2024-02-21T14:04:04;9.90;99.90
26326;DHT22;14032;52.510;7.342;2024-02-21T14:06:30;9.90;99.90
26326;DHT22;14032;52.510;7.342;2024-02-21T14:08:56;9.90;99.90
26326;DHT22;14032;52.510;7.342;2024-02-21T14:11:21;9.90;99.90
26326;DHT22;14032;52.510;7.342;2024-02-21T14:13:47;10.10;99.90
26326;DHT22;14032;52.510;7.342;2024-02-21T14:16:15;10.00;99.90
26326;DHT22;14032;52.510;7.342;2024-02-21T14:18:41;10.00;99.90
26326;DHT22;14032;52.510;7.342;2024-02-21T14:21:10;10.00;99.90
26326;DHT22;14032;52.510;7.342;2024-02-21T14:23:37;10.00;99.90
26326;DHT22;14032;52.510;7.342;2024-02-21T14:26:03;10.00;99.90
26326;DHT22;14032;52.510;7.342;2024-02-21T14:28:29;10.00;99.90
26326;DHT22;14032;52.510;7.342;2024-02-21T14:30:55;10.00;99.90
26326;DHT22;14032;52.510;7.342;2024-02-21T14:33:24;10.00;99.90
26326;DHT22;14032;52.510;7.342;2024-02-21T14:35:50;10.00;99.90
26326;DHT22;14032;52.510;7.342;2024-02-21T14:38:18;9.90;99.90
26326;DHT22;14032;52.510;7.342;2024-02-21T14:40:44;9.90;99.90
26326;DHT22;14032;52.510;7.342;2024-02-21T14:43:10;9.90;99.90
26326;DHT22;14032;52.510;7.342;2024-02-21T14:45:36;10.00;99.90
26326;DHT22;14032;52.510;7.342;2024-02-21T14:48:03;10.00;99.90
26326;DHT22;14032;52.510;7.342;2024-02-21T14:50:29;10.00;99.90
26326;DHT22;14032;52.510;7.342;2024-02-21T14:52:55;10.00;99.90
26326;DHT22;14032;52.510;7.342;2024-02-21T14:55:22;10.00;99.90
26326;DHT22;14032;52.510;7.342;2024-02-21T14:57:48;10.00;99.90
26326;DHT22;14032;52.510;7.342;2024-02-21T15:00:14;9.90;99.90
26326;DHT22;14032;52.510;7.342;2024-02-21T15:02:40;9.90;99.90
26326;DHT22;14032;52.510;7.342;2024-02-21T15:05:06;9.90;99.90
26326;DHT22;14032;52.510;7.342;2024-02-21T15:07:32;9.90;99.90
26326;DHT22;14032;52.510;7.342;2024-02-21T15:09:58;9.90;99.90
26326;DHT22;14032;52.510;7.342;2024-02-21T15:12:27;9.90;99.90
26326;DHT22;14032;52.510;7.342;2024-02-21T15:14:56;9.90;99.90
26326;DHT22;14032;52.510;7.342;2024-02-21T15:17:21;9.90;99.90
26326;DHT22;14032;52.510;7.342;2024-02-21T15:19:47;9.90;99.90
26326;DHT22;14032;52.510;7.342;2024-02-21T15:22:13;9.90;99.90
26326;DHT22;14032;52.510;7.342;2024-02-21T15:24:40;9.90;99.90
26326;DHT22;14032;52.510;7.342;2024-02-21T15:27:06;9.90;99.90
26326;DHT22;14032;52.510;7.342;2024-02-21T15:29:34;9.90;99.90
26326;DHT22;14032;52.510;7.342;2024-02-21T15:32:01;9.90;99.90
26326;DHT22;14032;52.510;7.342;2024-02-21T15:34:27;9.90;99.90
26326;DHT22;14032;52.510;7.342;2024-02-21T15:36:53;9.90;99.90
26326;DHT22;14032;52.510;7.342;2024-02-21T15:39:19;9.90;99.90
26326;DHT22;14032;52.510;7.342;2024-02-21T15:41:44;9.80;99.90
26326;DHT22;14032;52.510;7.342;2024-02-21T15:44:12;9.80;99.90
26326;DHT22;14032;52.510;7.342;2024-02-21T15:46:37;9.80;99.90
26326;DHT22;14032;52.510;7.342;2024-02-21T15:49:03;9.80;99.90
26326;DHT22;14032;52.510;7.342;2024-02-21T15:51:29;9.80;99.90
26326;DHT22;14032;52.510;7.342;2024-02-21T15:54:03;9.80;99.90